Weather History for Bentonville, AR

Change the Weather History Date:

Saturday, April 20, 2013

  Actual Average Record
Temperature  
Mean Temperature 50 °F -  
Max Temperature 66 °F 70 °F 90 °F (1987)
Min Temperature 35 °F 47 °F 28 °F (1953)
Degree Days  
Heating Degree Days 14    
Growing Degree Days 0 (Base 50)    
Moisture  
Dew Point 33 °F    
Average Humidity 50    
Maximum Humidity 81    
Minimum Humidity 28    
Precipitation  
Precipitation 0.00 in - - ()
Sea Level Pressure  
Sea Level Pressure 30.13 in    
Wind  
Wind Speed 4 mph (South)    
Max Wind Speed 12 mph    
Max Gust Speed 23 mph    
Visibility 10 miles    
Events      
Averages and records for this station are not official NWS values.
T = Trace of Precipitation, MM = Missing Value Source: NWS Daily Summary

Daily Weather History Graph

Daily Weather History Graph

Search for Another Location

Airport:

Trip Planner

Search our weather history database for the weather conditions in past years. The results will help you decide how hot, cold, wet, or windy it might be!

Date:

Astronomy

Apr. 20, 2013 Rise Set
Actual Time 6:36 AM CDT 7:55 PM CDT
Civil Twilight 6:09 AM CDT 8:22 PM CDT
Nautical Twilight 5:37 AM CDT 8:54 PM CDT
Astronomical Twilight 5:04 AM CDT 9:28 PM CDT
Moon 2:48 PM CDT (4/20) 3:17 AM CDT (4/20)
Length of Visible Light 14h 12m
Length of Day
13h 18m
Waxing Gibbous, 71% of the Moon is Illuminated
Apr 20
Waxing Gibbous
Apr 25
Full
May 2
Last Quarter
May 9
New
May 17
First Quarter

Hourly Weather History & Observations

Time (CDT) Temp. Windchill Dew Point Humidity Pressure Visibility Wind Dir Wind Speed Gust Speed Precip Events Conditions
12:15 AM 41.0 °F 39.0 °F 30.2 °F 65% 30.09 in 10.0 mi South 3.5 mph - N/A   Clear
12:35 AM 41.0 °F 39.0 °F 28.4 °F 61% 30.09 in 10.0 mi South 3.5 mph - N/A   Clear
12:55 AM 41.0 °F 39.0 °F 28.4 °F 61% 30.09 in 10.0 mi South 3.5 mph - N/A   Clear
1:35 AM 41.0 °F 39.0 °F 26.6 °F 57% 30.10 in 10.0 mi South 3.5 mph - N/A   Clear
1:55 AM 39.2 °F 37.0 °F 28.4 °F 65% 30.10 in 10.0 mi South 3.5 mph - N/A   Clear
2:15 AM 39.2 °F 37.0 °F 28.4 °F 65% 30.10 in 10.0 mi SSE 3.5 mph - N/A   Clear
2:35 AM 39.2 °F 37.0 °F 28.4 °F 65% 30.09 in 10.0 mi SSE 3.5 mph - N/A   Clear
2:55 AM 39.2 °F - 28.4 °F 65% 30.09 in 10.0 mi Calm Calm - N/A   Clear
3:15 AM 39.2 °F 37.0 °F 28.4 °F 65% 30.10 in 10.0 mi South 3.5 mph - N/A   Clear
3:35 AM 39.2 °F - 28.4 °F 65% 30.10 in 10.0 mi Calm Calm - N/A   Clear
3:55 AM 39.2 °F - 28.4 °F 65% 30.10 in 10.0 mi Calm Calm - N/A   Clear
4:15 AM 41.0 °F - 28.4 °F 61% 30.10 in 10.0 mi Calm Calm - N/A   Clear
4:35 AM 39.2 °F - 30.2 °F 70% 30.11 in 10.0 mi Calm Calm - N/A   Clear
4:55 AM 39.2 °F - 32.0 °F 75% 30.12 in 10.0 mi Calm Calm - N/A   Clear
5:15 AM 39.2 °F - 32.0 °F 75% 30.12 in 10.0 mi Calm Calm - N/A   Clear
5:35 AM 37.4 °F - 30.2 °F 75% 30.12 in 10.0 mi Calm Calm - N/A   Clear
5:55 AM 37.4 °F 34.9 °F 30.2 °F 75% 30.13 in 10.0 mi ESE 3.5 mph - N/A   Clear
6:15 AM 35.6 °F 31.7 °F 28.4 °F 75% 30.13 in 10.0 mi SE 4.6 mph - N/A   Clear
6:35 AM 35.6 °F 31.7 °F 30.2 °F 81% 30.13 in 10.0 mi SE 4.6 mph - N/A   Clear
6:55 AM 37.4 °F 32.8 °F 30.2 °F 75% 30.14 in 10.0 mi SE 5.8 mph - N/A   Clear
7:15 AM 37.4 °F 34.9 °F 30.2 °F 75% 30.14 in 10.0 mi ESE 3.5 mph - N/A   Clear
7:35 AM 39.2 °F - 33.8 °F 81% 30.15 in 10.0 mi Calm Calm - N/A   Clear
7:55 AM 42.8 °F - 35.6 °F 76% 30.16 in 10.0 mi Calm Calm - N/A   Clear
8:15 AM 44.6 °F 42.2 °F 35.6 °F 71% 30.17 in 10.0 mi SSE 4.6 mph - N/A   Clear
8:35 AM 46.4 °F 45.2 °F 35.6 °F 66% 30.18 in 10.0 mi SSE 3.5 mph - N/A   Clear
8:55 AM 46.4 °F 44.3 °F 35.6 °F 66% 30.18 in 10.0 mi South 4.6 mph - N/A   Clear
9:15 AM 48.2 °F - 33.8 °F 58% 30.18 in 10.0 mi SSE 5.8 mph - N/A   Clear
9:35 AM 51.8 °F - 35.6 °F 54% 30.18 in 10.0 mi South 3.5 mph - N/A   Clear
9:55 AM 53.6 °F - 35.6 °F 51% 30.19 in 10.0 mi SSW 5.8 mph - N/A   Clear
10:15 AM 55.4 °F - 33.8 °F 44% 30.20 in 10.0 mi WSW 5.8 mph - N/A   Clear
10:35 AM 55.4 °F - 32.0 °F 41% 30.20 in 10.0 mi WSW 10.4 mph - N/A   Clear
10:55 AM 57.2 °F - 32.0 °F 38% 30.20 in 10.0 mi SW 9.2 mph - N/A   Clear
11:15 AM 57.2 °F - 33.8 °F 41% 30.20 in 10.0 mi SW 10.4 mph - N/A   Clear
11:35 AM 59.0 °F - 33.8 °F 39% 30.20 in 10.0 mi SSW 8.1 mph - N/A   Clear
11:55 AM 60.8 °F - 33.8 °F 36% 30.19 in 10.0 mi SW 11.5 mph 23.0 mph N/A   Clear
12:15 PM 60.8 °F - 33.8 °F 36% 30.18 in 10.0 mi SW 11.5 mph - N/A   Clear
12:35 PM 60.8 °F - 33.8 °F 36% 30.17 in 10.0 mi SSW 10.4 mph - N/A   Clear
12:55 PM 62.6 °F - 32.0 °F 32% 30.17 in 10.0 mi SSW 9.2 mph 16.1 mph N/A   Clear
1:15 PM 62.6 °F - 33.8 °F 34% 30.16 in 10.0 mi WSW 6.9 mph - N/A   Clear
1:35 PM 62.6 °F - 33.8 °F 34% 30.16 in 10.0 mi SW 4.6 mph - N/A   Clear
1:55 PM 62.6 °F - 35.6 °F 37% 30.15 in 10.0 mi South 5.8 mph - N/A   Clear
2:15 PM 64.4 °F - 35.6 °F 34% 30.15 in 10.0 mi SSW 8.1 mph - N/A   Clear
2:35 PM 64.4 °F - 33.8 °F 32% 30.14 in 10.0 mi South 8.1 mph - N/A   Clear
2:55 PM 64.4 °F - 35.6 °F 34% 30.13 in 10.0 mi South 5.8 mph - N/A   Clear
3:15 PM 64.4 °F - 32.0 °F 30% 30.12 in 10.0 mi SW 6.9 mph - N/A   Clear
3:35 PM 66.2 °F - 35.6 °F 32% 30.11 in 10.0 mi South 3.5 mph - N/A   Clear
3:55 PM 66.2 °F - 33.8 °F 30% 30.11 in 10.0 mi SSE 10.4 mph - N/A   Clear
4:15 PM 66.2 °F - 35.6 °F 32% 30.10 in 10.0 mi South 10.4 mph - N/A   Clear
4:35 PM 66.2 °F - 32.0 °F 28% 30.10 in 10.0 mi SSW 9.2 mph - N/A   Clear
4:55 PM 64.4 °F - 33.8 °F 32% 30.09 in 10.0 mi SSW 6.9 mph - N/A   Clear
5:15 PM 64.4 °F - 33.8 °F 32% 30.09 in 10.0 mi SSW 6.9 mph - N/A   Clear
5:35 PM 64.4 °F - 35.6 °F 34% 30.09 in 10.0 mi South 9.2 mph - N/A   Clear
5:55 PM 64.4 °F - 35.6 °F 34% 30.09 in 10.0 mi South 9.2 mph - N/A   Clear
6:15 PM 62.6 °F - 33.8 °F 34% 30.09 in 10.0 mi South 8.1 mph - N/A   Clear
6:35 PM 64.4 °F - 33.8 °F 32% 30.09 in 10.0 mi South 4.6 mph - N/A   Clear
6:55 PM 64.4 °F - 35.6 °F 34% 30.09 in 10.0 mi South 4.6 mph - N/A   Clear
7:15 PM 60.8 °F - 35.6 °F 39% 30.10 in 10.0 mi SSE 5.8 mph - N/A   Clear
7:35 PM 60.8 °F - 35.6 °F 39% 30.10 in 10.0 mi SSE 5.8 mph - N/A   Clear
7:55 PM 59.0 °F - 35.6 °F 42% 30.10 in 10.0 mi SE 4.6 mph - N/A   Clear
8:15 PM 59.0 °F - 33.8 °F 39% 30.11 in 10.0 mi SE 3.5 mph - N/A   Clear
8:35 PM 59.0 °F - 33.8 °F 39% 30.12 in 10.0 mi SE 3.5 mph - N/A   Clear
8:55 PM 59.0 °F - 33.8 °F 39% 30.13 in 10.0 mi ESE 4.6 mph - N/A   Clear
9:15 PM 57.2 °F - 33.8 °F 41% 30.14 in 10.0 mi SE 5.8 mph - N/A   Clear
9:35 PM 55.4 °F - 35.6 °F 47% 30.15 in 10.0 mi SE 5.8 mph - N/A   Clear
9:55 PM 57.2 °F - 33.8 °F 41% 30.16 in 10.0 mi ESE 6.9 mph - N/A   Clear
10:15 PM 57.2 °F - 35.6 °F 44% 30.16 in 10.0 mi ESE 5.8 mph - N/A   Partly Cloudy
10:35 PM 55.4 °F - 35.6 °F 47% 30.16 in 10.0 mi SE 5.8 mph - N/A   Clear
10:55 PM 53.6 °F - 35.6 °F 51% 30.16 in 10.0 mi SE 5.8 mph - N/A   Clear
11:15 PM 53.6 °F - 35.6 °F 51% 30.16 in 10.0 mi SE 5.8 mph - N/A   Clear
11:35 PM 53.6 °F - 35.6 °F 51% 30.16 in 10.0 mi SE 6.9 mph - N/A   Clear
11:55 PM 51.8 °F - 35.6 °F 54% 30.16 in 10.0 mi SE 6.9 mph - N/A   Clear